createdAt,value
2022-09-17T00:01:31.407Z,95320.88
2022-09-17T00:04:03.961Z,95403.69
2022-09-17T00:06:33.070Z,95338.84
2022-09-17T00:09:00.748Z,95408.28
2022-09-17T00:11:30.598Z,95439.22
2022-09-17T00:14:00.548Z,95414.69
2022-09-17T00:16:32.327Z,95436.22
2022-09-17T00:19:00.950Z,95438.53
2022-09-17T00:21:29.267Z,95413.31
2022-09-17T00:23:58.550Z,95418.09
2022-09-17T00:26:26.899Z,95330.97
2022-09-17T00:28:55.979Z,95427.50
2022-09-17T00:31:25.452Z,95429.38
2022-09-17T00:33:54.690Z,95265.47
2022-09-17T00:36:23.308Z,95423.50
2022-09-17T00:38:51.878Z,95344.38
2022-09-17T00:41:20.099Z,95365.41
2022-09-17T00:43:50.926Z,95445.94
2022-09-17T00:46:32.592Z,95441.81
2022-09-17T00:49:04.633Z,95435.06
2022-09-17T00:51:37.051Z,95448.16
2022-09-17T00:54:08.837Z,95464.06
2022-09-17T00:56:39.846Z,95415.88
2022-09-17T00:59:09.036Z,95427.47
2022-09-17T01:01:37.428Z,95451.16
2022-09-17T01:04:06.515Z,95412.94
2022-09-17T01:06:41.429Z,95383.78
2022-09-17T01:09:26.574Z,95436.88
2022-09-17T01:12:13.166Z,95433.03
2022-09-17T01:14:58.622Z,95418.28
2022-09-17T01:17:32.753Z,95441.97
2022-09-17T01:20:34.172Z,95285.50
2022-09-17T01:23:23.757Z,95379.84
2022-09-17T01:26:07.840Z,95433.66
2022-09-17T01:28:43.332Z,95438.88
2022-09-17T01:31:38.885Z,95447.00
2022-09-17T01:34:20.914Z,95344.50
2022-09-17T01:37:00.597Z,95423.63
2022-09-17T01:39:46.584Z,95449.03
2022-09-17T01:42:25.425Z,95431.09
2022-09-17T01:45:00.249Z,95379.84
2022-09-17T01:47:32.779Z,95462.44
2022-09-17T01:50:04.472Z,95439.59
2022-09-17T01:52:35.379Z,95255.13
2022-09-17T01:55:06.956Z,95328.63
2022-09-17T01:57:41.135Z,95334.41
2022-09-17T02:00:12.000Z,95409.66
2022-09-17T02:02:45.846Z,95414.50
2022-09-17T02:05:19.027Z,95319.66
2022-09-17T02:07:56.157Z,95457.78
2022-09-17T02:10:29.544Z,95433.66
2022-09-17T02:13:01.715Z,95422.06
2022-09-17T02:15:35.311Z,95347.41
2022-09-17T02:18:11.659Z,95457.28
2022-09-17T02:20:44.567Z,95346.69
2022-09-17T02:23:17.353Z,95449.38
2022-09-17T02:25:50.688Z,95322.75
2022-09-17T02:28:25.334Z,95396.31
2022-09-17T02:30:53.166Z,95430.69
2022-09-17T02:33:23.819Z,95303.56
2022-09-17T02:35:51.626Z,95432.59
2022-09-17T02:38:24.443Z,95433.19
2022-09-17T02:40:58.828Z,95323.81
2022-09-17T02:43:38.019Z,95413.16
2022-09-17T02:46:25.634Z,95382.69
2022-09-17T02:49:18.272Z,95373.00
2022-09-17T02:51:52.991Z,95382.69
2022-09-17T02:54:28.333Z,95399.41
2022-09-17T02:57:08.717Z,95343.03
2022-09-17T02:59:43.733Z,95403.00
2022-09-17T03:02:21.579Z,95402.03
2022-09-17T03:04:51.635Z,95352.53
2022-09-17T03:07:20.940Z,95397.06
2022-09-17T03:09:48.635Z,95318.31
2022-09-17T03:12:17.436Z,95379.78
2022-09-17T03:14:45.147Z,95361.41
2022-09-17T03:17:14.856Z,95397.28
2022-09-17T03:19:42.598Z,95384.41
2022-09-17T03:22:12.489Z,95366.00
2022-09-17T03:24:40.267Z,95399.44
2022-09-17T03:27:08.025Z,95393.69
2022-09-17T03:29:35.735Z,95331.06
2022-09-17T03:32:03.633Z,95397.59
2022-09-17T03:34:31.307Z,95394.31
2022-09-17T03:36:58.967Z,95394.44
2022-09-17T03:39:28.013Z,95398.50
2022-09-17T03:41:55.673Z,95406.97
2022-09-17T03:44:23.791Z,95403.50
2022-09-17T03:46:51.667Z,95405.75
2022-09-17T03:49:19.539Z,95408.03
2022-09-17T03:51:47.227Z,95331.59
2022-09-17T03:54:14.929Z,95398.75
2022-09-17T03:56:44.260Z,95406.09
2022-09-17T03:59:11.971Z,95392.47
2022-09-17T04:01:39.793Z,95390.19
2022-09-17T04:04:07.880Z,95396.31
2022-09-17T04:06:35.763Z,95352.38
2022-09-17T04:09:05.063Z,95360.81
2022-09-17T04:11:32.766Z,95309.56
2022-09-17T04:14:01.819Z,95397.03
2022-09-17T04:16:29.604Z,95330.78
2022-09-17T04:18:57.372Z,95400.78
2022-09-17T04:21:25.075Z,95344.22
2022-09-17T04:23:52.767Z,95383.94
2022-09-17T04:26:20.449Z,95357.38
2022-09-17T04:28:48.290Z,95321.78
2022-09-17T04:31:17.519Z,95279.03
2022-09-17T04:33:45.377Z,95398.16
2022-09-17T04:36:13.067Z,95308.56
2022-09-17T04:38:40.810Z,95400.16
2022-09-17T04:41:09.328Z,95398.81
2022-09-17T04:43:37.050Z,95391.97
2022-09-17T04:46:05.008Z,95362.56
2022-09-17T04:48:34.511Z,95389.19
2022-09-17T04:51:02.198Z,95395.53
2022-09-17T04:53:29.918Z,95406.91
2022-09-17T04:55:58.462Z,95419.31
2022-09-17T04:58:26.310Z,95430.50
2022-09-17T05:00:54.236Z,95385.69
2022-09-17T05:03:21.925Z,95456.00
2022-09-17T05:05:50.975Z,95477.53
2022-09-17T05:08:18.579Z,95490.88
2022-09-17T05:10:46.205Z,95506.63
2022-09-17T05:13:13.900Z,95513.91
2022-09-17T05:15:41.633Z,95517.75
2022-09-17T05:18:09.431Z,95515.13
2022-09-17T05:20:37.187Z,95506.56
2022-09-17T05:23:06.284Z,95520.53
2022-09-17T05:25:34.055Z,95479.19
2022-09-17T05:28:02.251Z,95534.28
2022-09-17T05:30:30.249Z,95540.06
2022-09-17T05:33:03.067Z,95540.28
2022-09-17T05:35:31.316Z,95549.19
2022-09-17T05:38:00.691Z,95523.50
2022-09-17T05:40:30.854Z,95561.22
2022-09-17T05:43:02.715Z,95531.97
2022-09-17T05:45:31.086Z,95567.31
2022-09-17T05:48:00.134Z,95552.53
2022-09-17T05:50:29.402Z,95568.34
2022-09-17T05:52:57.566Z,95573.97
2022-09-17T05:55:25.505Z,95578.97
2022-09-17T05:57:54.569Z,95574.81
2022-09-17T06:00:22.531Z,95546.00
2022-09-17T06:02:55.962Z,95576.34
2022-09-17T06:05:23.649Z,95576.34
2022-09-17T06:07:51.811Z,95577.41
2022-09-17T06:10:19.530Z,95571.75
2022-09-17T06:12:47.456Z,95587.28
2022-09-17T06:15:16.556Z,95566.13
2022-09-17T06:17:44.395Z,95565.59
2022-09-17T06:20:12.064Z,95563.47
2022-09-17T06:22:39.718Z,95558.50
2022-09-17T06:25:08.169Z,95563.69
2022-09-17T06:27:36.232Z,95563.41
2022-09-17T06:30:04.902Z,95542.56
2022-09-17T06:32:34.362Z,95564.34
2022-09-17T06:35:03.291Z,95529.81
2022-09-17T06:37:32.358Z,95555.69
2022-09-17T06:40:00.745Z,95552.22
2022-09-17T06:42:30.118Z,95544.59
2022-09-17T06:45:00.357Z,95555.00
2022-09-17T06:47:29.778Z,95564.44
2022-09-17T06:49:59.863Z,95550.53
2022-09-17T06:52:27.498Z,95552.56
2022-09-17T06:54:55.243Z,95568.28
2022-09-17T06:57:22.918Z,95558.75
2022-09-17T06:59:51.892Z,95567.78
2022-09-17T07:02:19.752Z,95572.78
2022-09-17T07:04:47.482Z,95525.94
2022-09-17T07:07:16.592Z,95564.09
2022-09-17T07:09:44.202Z,95544.00
2022-09-17T07:12:12.045Z,95544.56
2022-09-17T07:14:39.771Z,95449.59
2022-09-17T07:17:07.442Z,95544.72
2022-09-17T07:19:35.115Z,95547.47
2022-09-17T07:22:03.417Z,95553.50
2022-09-17T07:24:33.122Z,95556.34
2022-09-17T07:27:01.638Z,95558.25
2022-09-17T07:29:29.335Z,95548.56
2022-09-17T07:31:58.358Z,95557.50
2022-09-17T07:34:28.058Z,95551.44
2022-09-17T07:36:56.028Z,95550.63
2022-09-17T07:39:23.743Z,95540.66
2022-09-17T07:41:52.767Z,95526.19
2022-09-17T07:44:22.446Z,95546.16
2022-09-17T07:46:50.320Z,95491.06
2022-09-17T07:49:18.074Z,95491.28
2022-09-17T07:51:45.798Z,95473.78
2022-09-17T07:54:14.029Z,95457.59
2022-09-17T07:56:41.655Z,95527.91
2022-09-17T07:59:11.810Z,95534.63
2022-09-17T08:01:39.621Z,95536.69
2022-09-17T08:04:08.168Z,95521.31
2022-09-17T08:06:40.244Z,95544.22
2022-09-17T08:09:09.897Z,95532.28
2022-09-17T08:11:54.977Z,95543.03
2022-09-17T08:14:29.117Z,95556.53
2022-09-17T08:16:57.096Z,95549.66
2022-09-17T08:19:25.462Z,95559.53
2022-09-17T08:21:53.165Z,95556.81
2022-09-17T08:24:20.886Z,95554.94
2022-09-17T08:26:48.841Z,95456.38
2022-09-17T08:29:16.665Z,95517.78
2022-09-17T08:31:45.802Z,95521.88
2022-09-17T08:34:14.390Z,95563.38
2022-09-17T08:36:42.101Z,95567.84
2022-09-17T08:39:12.033Z,95556.31
2022-09-17T08:41:51.822Z,95565.97
2022-09-17T08:44:25.993Z,95581.09
2022-09-17T08:47:00.486Z,95563.25
2022-09-17T08:49:35.173Z,95582.44
2022-09-17T08:52:17.355Z,95600.19
2022-09-17T08:54:55.455Z,95599.88
2022-09-17T08:57:31.530Z,95596.84
2022-09-17T09:00:04.640Z,95594.69
2022-09-17T09:02:57.669Z,95602.97
2022-09-17T09:05:33.199Z,95605.19
2022-09-17T09:08:06.719Z,95606.81
2022-09-17T09:10:44.310Z,95606.22
2022-09-17T09:13:16.158Z,95618.78
2022-09-17T09:15:48.275Z,95610.88
2022-09-17T09:18:20.529Z,95610.78
2022-09-17T09:20:53.532Z,95616.06
2022-09-17T09:23:28.217Z,95614.50
2022-09-17T09:26:04.547Z,95598.50
2022-09-17T09:28:57.152Z,95583.94
2022-09-17T09:31:49.508Z,95607.69
2022-09-17T09:34:19.018Z,95609.31
2022-09-17T09:36:47.357Z,95623.69
2022-09-17T09:39:20.188Z,95618.47
2022-09-17T09:41:54.222Z,95626.78
2022-09-17T09:44:21.932Z,95628.34
2022-09-17T09:47:12.388Z,95627.44
2022-09-17T09:49:57.699Z,95622.00
2022-09-17T09:52:41.924Z,95619.34
2022-09-17T09:55:30.811Z,95630.59
2022-09-17T09:58:10.003Z,95630.75
2022-09-17T10:00:40.208Z,95631.25
2022-09-17T10:03:16.166Z,95621.00
2022-09-17T10:05:55.625Z,95637.13
2022-09-17T10:08:24.362Z,95642.19
2022-09-17T10:11:00.994Z,95642.31
2022-09-17T10:13:31.286Z,95641.47
2022-09-17T10:16:17.792Z,95634.00
2022-09-17T10:18:46.219Z,95660.41
2022-09-17T10:21:23.047Z,95644.53
2022-09-17T10:23:51.719Z,95649.88
2022-09-17T10:26:28.313Z,95648.78
2022-09-17T10:28:57.685Z,95652.44
2022-09-17T10:31:25.838Z,95640.25
2022-09-17T10:33:58.488Z,95635.78
2022-09-17T10:36:42.949Z,95637.13
2022-09-17T10:39:34.129Z,95628.00
2022-09-17T10:42:03.729Z,95630.69
2022-09-17T10:44:32.828Z,95634.72
2022-09-17T10:47:07.194Z,95636.28
2022-09-17T10:49:42.511Z,95631.97
2022-09-17T10:52:22.940Z,95631.34
2022-09-17T10:55:13.105Z,95625.41
2022-09-17T10:58:03.402Z,95623.09
2022-09-17T11:00:42.680Z,95610.53
2022-09-17T11:03:39.119Z,95624.34
2022-09-17T11:06:41.498Z,95621.72
2022-09-17T11:09:22.663Z,95621.56
2022-09-17T11:12:02.968Z,95624.28
2022-09-17T11:14:47.833Z,95622.41
2022-09-17T11:17:32.345Z,95624.88
2022-09-17T11:20:05.286Z,95624.31
2022-09-17T11:22:48.740Z,95618.78
2022-09-17T11:25:36.879Z,95637.63
2022-09-17T11:28:17.340Z,95628.81
2022-09-17T11:30:57.057Z,95620.84
2022-09-17T11:33:52.852Z,95629.06
2022-09-17T11:36:25.767Z,95610.63
2022-09-17T11:38:56.746Z,95623.63
2022-09-17T11:41:31.967Z,95608.03
2022-09-17T11:44:09.567Z,95609.22
2022-09-17T11:46:44.228Z,95622.34
2022-09-17T11:49:23.239Z,95597.72
2022-09-17T11:51:57.215Z,95614.56
2022-09-17T11:54:29.336Z,95615.00
2022-09-17T11:57:09.829Z,95605.78
2022-09-17T11:59:44.565Z,95622.31
2022-09-17T12:02:21.890Z,95612.13
2022-09-17T12:04:59.588Z,95607.00
2022-09-17T12:07:35.749Z,95612.53
2022-09-17T12:10:21.927Z,95613.81
2022-09-17T12:12:58.098Z,95600.91
2022-09-17T12:15:29.084Z,95597.66
2022-09-17T12:18:34.587Z,95590.09
2022-09-17T12:21:06.040Z,95585.50
2022-09-17T12:23:40.125Z,95549.41
2022-09-17T12:26:21.862Z,95590.63
2022-09-17T12:29:00.394Z,95568.34
2022-09-17T12:31:38.269Z,95567.84
2022-09-17T12:34:24.351Z,95576.69
2022-09-17T12:36:58.585Z,95590.28
2022-09-17T12:39:56.903Z,95582.50
2022-09-17T12:42:37.511Z,95582.31
2022-09-17T12:45:32.840Z,95585.00
2022-09-17T12:48:26.111Z,95582.38
2022-09-17T12:51:02.957Z,95581.19
2022-09-17T12:53:36.894Z,95580.47
2022-09-17T12:56:14.192Z,95580.41
2022-09-17T12:58:55.787Z,95583.44
2022-09-17T13:01:33.149Z,95580.19
2022-09-17T13:04:15.704Z,95582.50
2022-09-17T13:07:16.205Z,95574.34
2022-09-17T13:10:01.072Z,95576.75
2022-09-17T13:12:45.399Z,95574.13
2022-09-17T13:15:48.125Z,95563.66
2022-09-17T13:18:29.692Z,95564.66
2022-09-17T13:21:05.467Z,95555.78
2022-09-17T13:23:36.993Z,95547.69
2022-09-17T13:26:06.773Z,95542.06
2022-09-17T13:28:43.267Z,95549.66
2022-09-17T13:31:14.516Z,95546.66
2022-09-17T13:33:58.359Z,95548.38
2022-09-17T13:36:48.518Z,95558.94
2022-09-17T13:39:38.570Z,95564.13
2022-09-17T13:42:10.798Z,95566.69
2022-09-17T13:44:42.402Z,95564.56
2022-09-17T13:47:29.440Z,95571.00
2022-09-17T13:50:02.452Z,95558.69
2022-09-17T13:52:42.035Z,95561.78
2022-09-17T13:55:30.592Z,95567.47
2022-09-17T13:57:58.978Z,95571.50
2022-09-17T14:00:53.108Z,95573.28
2022-09-17T14:03:56.853Z,95573.84
2022-09-17T14:07:01.321Z,95570.31
2022-09-17T14:09:39.301Z,95557.22
2022-09-17T14:12:40.508Z,95560.50
2022-09-17T14:15:36.038Z,95564.06
2022-09-17T14:18:50.906Z,95565.72
2022-09-17T14:21:26.902Z,95564.16
2022-09-17T14:23:57.980Z,95569.22
2022-09-17T14:26:44.689Z,95568.25
2022-09-17T14:29:30.108Z,95558.00
2022-09-17T14:31:59.948Z,95573.94
2022-09-17T14:34:28.453Z,95572.59
2022-09-17T14:36:57.803Z,95574.66
2022-09-17T14:39:30.900Z,95571.19
2022-09-17T14:42:01.690Z,95564.25
2022-09-17T14:44:34.577Z,95569.31
2022-09-17T14:47:04.677Z,95567.47
2022-09-17T14:49:35.639Z,95569.06
2022-09-17T14:52:19.176Z,95573.16
2022-09-17T14:54:46.852Z,95572.88
2022-09-17T14:57:27.941Z,95567.09
2022-09-17T14:59:59.591Z,95580.97
2022-09-17T15:02:35.155Z,95579.31
2022-09-17T15:05:04.165Z,95570.22
2022-09-17T15:07:31.886Z,95597.41
2022-09-17T15:10:13.624Z,95604.47
2022-09-17T15:12:45.010Z,95613.94
2022-09-17T15:15:20.187Z,95609.63
2022-09-17T15:17:49.714Z,95603.88
2022-09-17T15:20:20.960Z,95614.00
2022-09-17T15:22:56.796Z,95605.19
2022-09-17T15:25:30.140Z,95622.38
2022-09-17T15:28:05.242Z,95619.22
2022-09-17T15:30:33.220Z,95616.47
2022-09-17T15:33:01.977Z,95619.50
2022-09-17T15:35:31.811Z,95604.66
2022-09-17T15:40:50.476Z,95623.78
2022-09-17T15:43:26.517Z,95629.06
2022-09-17T15:45:55.459Z,95626.25
2022-09-17T15:48:37.414Z,95634.97
2022-09-17T15:51:07.894Z,95640.03
2022-09-17T15:53:36.814Z,95630.63
2022-09-17T15:56:08.545Z,95631.13
2022-09-17T15:58:53.949Z,95631.34
2022-09-17T16:01:51.869Z,95630.16
2022-09-17T16:04:22.510Z,95629.56
2022-09-17T16:07:18.551Z,95606.09
2022-09-17T16:09:49.011Z,95639.28
2022-09-17T16:12:19.670Z,95630.19
2022-09-17T16:14:51.239Z,95641.31
2022-09-17T16:17:28.031Z,95642.44
2022-09-17T16:19:56.737Z,95629.78
2022-09-17T16:22:29.504Z,95643.16
2022-09-17T16:24:57.300Z,95640.63
2022-09-17T16:27:30.021Z,95623.09
2022-09-17T16:30:05.588Z,95637.25
2022-09-17T16:32:33.259Z,95647.19
2022-09-17T16:35:01.033Z,95649.03
2022-09-17T16:37:28.705Z,95648.31
2022-09-17T16:39:56.419Z,95658.09
2022-09-17T16:42:24.382Z,95641.94
2022-09-17T16:44:52.057Z,95650.16
2022-09-17T16:47:21.066Z,95655.50
2022-09-17T16:49:48.780Z,95664.19
2022-09-17T16:52:16.402Z,95663.22
2022-09-17T16:54:44.226Z,95662.53
2022-09-17T16:57:13.938Z,95665.41
2022-09-17T16:59:41.626Z,95657.59
2022-09-17T17:02:10.417Z,95666.09
2022-09-17T17:04:39.521Z,95664.28
2022-09-17T17:07:07.212Z,95658.53
2022-09-17T17:09:35.096Z,95660.94
2022-09-17T17:12:03.168Z,95673.69
2022-09-17T17:14:32.043Z,95677.38
2022-09-17T17:16:59.839Z,95672.78
2022-09-17T17:19:27.498Z,95674.41
2022-09-17T17:21:56.524Z,95684.44
2022-09-17T17:24:24.318Z,95687.59
2022-09-17T17:26:52.021Z,95666.03
2022-09-17T17:29:19.717Z,95660.50
2022-09-17T17:31:49.536Z,95691.44
2022-09-17T17:34:17.691Z,95669.16
2022-09-17T17:36:45.436Z,95661.16
2022-09-17T17:39:14.427Z,95689.41
2022-09-17T17:41:42.159Z,95698.88
2022-09-17T17:44:12.498Z,95694.75
2022-09-17T17:46:40.650Z,95698.94
2022-09-17T17:49:09.069Z,95699.00
2022-09-17T17:51:37.038Z,95697.47
2022-09-17T17:54:05.100Z,95703.53
2022-09-17T17:56:34.142Z,95678.16
2022-09-17T17:59:01.940Z,95706.16
2022-09-17T18:01:31.440Z,95713.31
2022-09-17T18:04:00.371Z,95712.91
2022-09-17T18:06:28.956Z,95727.09
2022-09-17T18:08:56.729Z,95733.38
2022-09-17T18:11:24.914Z,95729.22
2022-09-17T18:13:55.064Z,95738.47
2022-09-17T18:16:24.130Z,95747.59
2022-09-17T18:18:51.885Z,95748.88
2022-09-17T18:21:22.343Z,95753.44
2022-09-17T18:23:51.011Z,95748.06
2022-09-17T18:26:20.227Z,95764.09
2022-09-17T18:28:48.695Z,95755.69
2022-09-17T18:31:22.736Z,95758.34
2022-09-17T18:33:51.633Z,95768.63
2022-09-17T18:36:19.257Z,95767.63
2022-09-17T18:38:46.896Z,95766.03
2022-09-17T18:41:14.624Z,95774.69
2022-09-17T18:43:42.599Z,95778.84
2022-09-17T18:46:10.713Z,95754.47
2022-09-17T18:48:39.752Z,95781.66
2022-09-17T18:51:09.396Z,95785.94
2022-09-17T18:53:38.932Z,95784.38
2022-09-17T18:56:12.906Z,95780.16
2022-09-17T18:58:41.639Z,95780.91
2022-09-17T19:01:09.708Z,95779.97
2022-09-17T19:03:38.814Z,95770.50
2022-09-17T19:06:08.901Z,95778.22
2022-09-17T19:08:36.659Z,95779.66
2022-09-17T19:11:05.258Z,95759.47
2022-09-17T19:13:35.438Z,95788.31
2022-09-17T19:16:05.621Z,95780.41
2022-09-17T19:18:34.040Z,95775.66
2022-09-17T19:21:04.034Z,95769.31
2022-09-17T19:23:32.470Z,95774.34
2022-09-17T19:26:07.099Z,95794.03
2022-09-17T19:28:36.390Z,95778.22
2022-09-17T19:31:05.598Z,95771.47
2022-09-17T19:33:33.463Z,95793.31
2022-09-17T19:36:07.011Z,95774.94
2022-09-17T19:38:35.278Z,95772.56
2022-09-17T19:41:07.299Z,95772.03
2022-09-17T19:43:35.101Z,95770.94
2022-09-17T19:46:03.229Z,95773.03
2022-09-17T19:48:31.514Z,95781.16
2022-09-17T19:50:59.568Z,95767.94
2022-09-17T19:53:28.792Z,95748.22
2022-09-17T19:55:56.761Z,95757.97
2022-09-17T19:58:24.435Z,95748.97
2022-09-17T20:00:56.145Z,95757.38
2022-09-17T20:03:25.106Z,95775.09
2022-09-17T20:05:59.910Z,95757.47
2022-09-17T20:08:29.564Z,95749.38
2022-09-17T20:10:57.580Z,95765.38
2022-09-17T20:13:26.245Z,95773.44
2022-09-17T20:15:53.947Z,95763.31
2022-09-17T20:18:23.650Z,95778.63
2022-09-17T20:20:53.496Z,95790.22
2022-09-17T20:23:21.176Z,95769.38
2022-09-17T20:25:53.795Z,95783.13
2022-09-17T20:28:21.540Z,95763.06
2022-09-17T20:30:49.251Z,95762.31
2022-09-17T20:33:19.934Z,95775.78
2022-09-17T20:35:50.015Z,95765.38
2022-09-17T20:41:08.686Z,95771.13
2022-09-17T20:43:37.924Z,95759.66
2022-09-17T20:46:06.906Z,95773.28
2022-09-17T20:48:35.777Z,95779.41
2022-09-17T20:51:07.244Z,95779.66
2022-09-17T20:53:37.193Z,95780.22
2022-09-17T20:56:07.844Z,95785.19
2022-09-17T20:58:39.498Z,95787.03
2022-09-17T21:01:08.926Z,95790.72
2022-09-17T21:03:37.586Z,95766.59
2022-09-17T21:06:05.720Z,95789.38
2022-09-17T21:08:33.490Z,95801.53
2022-09-17T21:11:06.026Z,95780.88
2022-09-17T21:13:33.731Z,95762.75
2022-09-17T21:16:07.815Z,95791.38
2022-09-17T21:18:39.570Z,95806.63
2022-09-17T21:21:08.790Z,95810.00
2022-09-17T21:23:37.962Z,95797.72
2022-09-17T21:26:09.326Z,95803.56
2022-09-17T21:28:37.477Z,95805.69
2022-09-17T21:31:06.682Z,95792.00
2022-09-17T21:33:34.683Z,95821.47
2022-09-17T21:36:07.391Z,95834.13
2022-09-17T21:38:35.285Z,95802.56
2022-09-17T21:41:05.869Z,95808.81
2022-09-17T21:43:36.211Z,95806.81
2022-09-17T21:46:07.825Z,95792.66
2022-09-17T21:48:37.087Z,95802.69
2022-09-17T21:51:06.991Z,95784.81
2022-09-17T21:53:35.763Z,95807.94
2022-09-17T21:56:05.691Z,95808.72
2022-09-17T21:58:35.228Z,95783.00
2022-09-17T22:01:08.501Z,95778.25
2022-09-17T22:03:36.934Z,95775.66
2022-09-17T22:06:05.982Z,95761.50
2022-09-17T22:08:34.432Z,95795.59
2022-09-17T22:11:08.522Z,95791.91
2022-09-17T22:13:38.135Z,95797.19
2022-09-17T22:16:08.072Z,95780.66
2022-09-17T22:18:37.741Z,95790.63
2022-09-17T22:21:13.911Z,95798.78
2022-09-17T22:23:41.589Z,95782.78
2022-09-17T22:26:11.857Z,95806.94
2022-09-17T22:28:40.940Z,95823.47
2022-09-17T22:31:19.451Z,95809.56
2022-09-17T22:33:51.318Z,95822.97
2022-09-17T22:36:20.462Z,95801.44
2022-09-17T22:38:50.756Z,95816.66
2022-09-17T22:41:19.719Z,95818.22
2022-09-17T22:43:48.866Z,95808.00
2022-09-17T22:46:19.729Z,95817.44
2022-09-17T22:48:48.181Z,95800.91
2022-09-17T22:51:16.168Z,95794.06
2022-09-17T22:53:44.500Z,95806.16
2022-09-17T22:56:23.208Z,95819.78
2022-09-17T22:58:52.841Z,95787.47
2022-09-17T23:01:23.370Z,95824.78
2022-09-17T23:03:53.393Z,95826.63
2022-09-17T23:06:24.833Z,95810.63
2022-09-17T23:08:52.558Z,95829.53
2022-09-17T23:11:22.586Z,95829.00
2022-09-17T23:13:52.519Z,95826.38
2022-09-17T23:16:20.798Z,95836.34
2022-09-17T23:18:48.587Z,95839.25
2022-09-17T23:21:18.916Z,95845.81
2022-09-17T23:23:48.293Z,95843.19
2022-09-17T23:26:18.571Z,95829.53
2022-09-17T23:28:46.403Z,95825.31
2022-09-17T23:31:19.189Z,95835.03
2022-09-17T23:33:47.530Z,95832.66
2022-09-17T23:36:17.229Z,95844.75
2022-09-17T23:38:46.365Z,95844.47
2022-09-17T23:41:17.005Z,95831.13
2022-09-17T23:43:47.667Z,95837.41
2022-09-17T23:46:17.244Z,95842.66
2022-09-17T23:48:45.541Z,95839.25
2022-09-17T23:51:13.513Z,95841.84
2022-09-17T23:53:41.412Z,95838.72
2022-09-17T23:56:13.251Z,95843.94
2022-09-17T23:58:41.234Z,95829.00
